sensor_id;sensor_type;location;lat;lon;timestamp;temperature;humidity
71801;HTU21D;59647;55.838;37.292;2023-08-21T00:00:17;16.39;91.26
71801;HTU21D;59647;55.838;37.292;2023-08-21T00:02:43;16.31;90.88
71801;HTU21D;59647;55.838;37.292;2023-08-21T00:05:09;16.30;90.54
71801;HTU21D;59647;55.838;37.292;2023-08-21T00:07:35;16.19;92.98
71801;HTU21D;59647;55.838;37.292;2023-08-21T00:10:01;16.20;90.83
71801;HTU21D;59647;55.838;37.292;2023-08-21T00:12:28;16.17;91.05
71801;HTU21D;59647;55.838;37.292;2023-08-21T00:14:54;16.14;90.83
71801;HTU21D;59647;55.838;37.292;2023-08-21T00:17:20;16.06;91.97
71801;HTU21D;59647;55.838;37.292;2023-08-21T00:19:46;16.05;91.34
71801;HTU21D;59647;55.838;37.292;2023-08-21T00:22:12;16.03;91.47
71801;HTU21D;59647;55.838;37.292;2023-08-21T00:24:38;16.01;91.23
71801;HTU21D;59647;55.838;37.292;2023-08-21T00:27:03;16.02;90.96
71801;HTU21D;59647;55.838;37.292;2023-08-21T00:29:29;15.99;91.19
71801;HTU21D;59647;55.838;37.292;2023-08-21T00:31:55;15.91;92.30
71801;HTU21D;59647;55.838;37.292;2023-08-21T00:34:21;15.89;91.71
71801;HTU21D;59647;55.838;37.292;2023-08-21T00:36:47;15.85;91.84
71801;HTU21D;59647;55.838;37.292;2023-08-21T00:39:13;15.85;91.56
71801;HTU21D;59647;55.838;37.292;2023-08-21T00:41:39;15.81;92.37
71801;HTU21D;59647;55.838;37.292;2023-08-21T00:44:05;15.78;92.24
71801;HTU21D;59647;55.838;37.292;2023-08-21T00:46:31;15.75;93.75
71801;HTU21D;59647;55.838;37.292;2023-08-21T00:48:57;15.73;93.17
71801;HTU21D;59647;55.838;37.292;2023-08-21T00:51:23;15.72;92.60
71801;HTU21D;59647;55.838;37.292;2023-08-21T00:53:50;15.74;92.33
71801;HTU21D;59647;55.838;37.292;2023-08-21T00:56:16;15.74;92.14
71801;HTU21D;59647;55.838;37.292;2023-08-21T00:58:42;15.72;92.51
71801;HTU21D;59647;55.838;37.292;2023-08-21T01:01:08;15.68;94.62
71801;HTU21D;59647;55.838;37.292;2023-08-21T01:03:34;15.67;93.65
71801;HTU21D;59647;55.838;37.292;2023-08-21T01:06:01;15.68;92.82
71801;HTU21D;59647;55.838;37.292;2023-08-21T01:08:37;15.60;95.26
71801;HTU21D;59647;55.838;37.292;2023-08-21T01:14:06;15.66;93.54
71801;HTU21D;59647;55.838;37.292;2023-08-21T01:16:34;15.66;94.07
71801;HTU21D;59647;55.838;37.292;2023-08-21T01:19:01;15.68;93.01
71801;HTU21D;59647;55.838;37.292;2023-08-21T01:21:29;15.67;93.23
71801;HTU21D;59647;55.838;37.292;2023-08-21T01:23:55;15.63;95.26
71801;HTU21D;59647;55.838;37.292;2023-08-21T01:26:21;15.63;93.34
71801;HTU21D;59647;55.838;37.292;2023-08-21T01:28:47;15.61;94.52
71801;HTU21D;59647;55.838;37.292;2023-08-21T01:31:26;15.57;95.36
71801;HTU21D;59647;55.838;37.292;2023-08-21T01:33:57;15.54;95.91
71801;HTU21D;59647;55.838;37.292;2023-08-21T01:36:25;15.49;96.68
71801;HTU21D;59647;55.838;37.292;2023-08-21T01:38:51;15.47;96.10
71801;HTU21D;59647;55.838;37.292;2023-08-21T01:41:17;15.48;94.43
71801;HTU21D;59647;55.838;37.292;2023-08-21T01:43:43;15.49;93.85
71801;HTU21D;59647;55.838;37.292;2023-08-21T01:46:10;15.45;97.32
71801;HTU21D;59647;55.838;37.292;2023-08-21T01:48:36;15.42;95.14
71801;HTU21D;59647;55.838;37.292;2023-08-21T01:51:02;15.41;94.70
71801;HTU21D;59647;55.838;37.292;2023-08-21T01:53:28;15.38;96.32
71801;HTU21D;59647;55.838;37.292;2023-08-21T01:55:54;15.36;97.02
71801;HTU21D;59647;55.838;37.292;2023-08-21T01:58:20;15.30;95.03
71801;HTU21D;59647;55.838;37.292;2023-08-21T02:00:47;15.29;95.52
71801;HTU21D;59647;55.838;37.292;2023-08-21T02:03:13;15.28;94.59
71801;HTU21D;59647;55.838;37.292;2023-08-21T02:05:39;15.27;94.38
71801;HTU21D;59647;55.838;37.292;2023-08-21T02:08:09;15.24;94.59
71801;HTU21D;59647;55.838;37.292;2023-08-21T02:10:35;15.22;94.71
71801;HTU21D;59647;55.838;37.292;2023-08-21T02:13:01;15.19;95.13
71801;HTU21D;59647;55.838;37.292;2023-08-21T02:15:27;15.14;96.81
71801;HTU21D;59647;55.838;37.292;2023-08-21T02:17:53;15.08;97.45
71801;HTU21D;59647;55.838;37.292;2023-08-21T02:20:19;15.12;95.27
71801;HTU21D;59647;55.838;37.292;2023-08-21T02:22:45;15.15;95.77
71801;HTU21D;59647;55.838;37.292;2023-08-21T02:25:11;15.12;95.23
71801;HTU21D;59647;55.838;37.292;2023-08-21T02:27:36;15.12;95.01
71801;HTU21D;59647;55.838;37.292;2023-08-21T02:30:04;15.10;95.01
71801;HTU21D;59647;55.838;37.292;2023-08-21T02:32:31;15.03;95.76
71801;HTU21D;59647;55.838;37.292;2023-08-21T02:34:59;15.02;95.74
71801;HTU21D;59647;55.838;37.292;2023-08-21T02:37:25;14.97;97.58
71801;HTU21D;59647;55.838;37.292;2023-08-21T02:39:51;14.98;95.75
71801;HTU21D;59647;55.838;37.292;2023-08-21T02:42:16;14.98;95.33
71801;HTU21D;59647;55.838;37.292;2023-08-21T02:44:42;14.94;97.81
71801;HTU21D;59647;55.838;37.292;2023-08-21T02:47:08;14.95;96.07
71801;HTU21D;59647;55.838;37.292;2023-08-21T02:49:34;14.92;98.16
71801;HTU21D;59647;55.838;37.292;2023-08-21T02:52:00;14.92;96.48
71801;HTU21D;59647;55.838;37.292;2023-08-21T02:54:26;14.91;97.90
71801;HTU21D;59647;55.838;37.292;2023-08-21T02:56:52;14.91;99.43
71801;HTU21D;59647;55.838;37.292;2023-08-21T02:59:18;14.93;97.75
71801;HTU21D;59647;55.838;37.292;2023-08-21T03:01:44;14.95;96.68
71801;HTU21D;59647;55.838;37.292;2023-08-21T03:04:09;14.93;96.62
71801;HTU21D;59647;55.838;37.292;2023-08-21T03:06:35;14.92;97.10
71801;HTU21D;59647;55.838;37.292;2023-08-21T03:09:01;14.92;97.42
71801;HTU21D;59647;55.838;37.292;2023-08-21T03:11:27;14.95;97.25
71801;HTU21D;59647;55.838;37.292;2023-08-21T03:13:55;14.97;97.75
71801;HTU21D;59647;55.838;37.292;2023-08-21T03:16:21;14.99;97.90
71801;HTU21D;59647;55.838;37.292;2023-08-21T03:18:58;15.01;98.77
71801;HTU21D;59647;55.838;37.292;2023-08-21T03:21:26;15.08;96.31
71801;HTU21D;59647;55.838;37.292;2023-08-21T03:23:56;15.09;96.36
71801;HTU21D;59647;55.838;37.292;2023-08-21T03:26:23;15.10;95.94
71801;HTU21D;59647;55.838;37.292;2023-08-21T03:28:49;15.10;96.17
71801;HTU21D;59647;55.838;37.292;2023-08-21T03:31:16;15.10;97.61
71801;HTU21D;59647;55.838;37.292;2023-08-21T03:33:42;15.16;96.23
71801;HTU21D;59647;55.838;37.292;2023-08-21T03:36:08;15.19;96.41
71801;HTU21D;59647;55.838;37.292;2023-08-21T03:38:35;15.19;96.91
71801;HTU21D;59647;55.838;37.292;2023-08-21T03:41:01;15.21;98.01
71801;HTU21D;59647;55.838;37.292;2023-08-21T03:43:28;15.18;96.56
71801;HTU21D;59647;55.838;37.292;2023-08-21T03:45:54;15.23;95.78
71801;HTU21D;59647;55.838;37.292;2023-08-21T03:48:20;15.25;96.60
71801;HTU21D;59647;55.838;37.292;2023-08-21T03:50:45;15.27;96.09
71801;HTU21D;59647;55.838;37.292;2023-08-21T03:53:11;15.33;95.59
71801;HTU21D;59647;55.838;37.292;2023-08-21T03:55:38;15.38;95.80
71801;HTU21D;59647;55.838;37.292;2023-08-21T03:58:04;15.39;96.40
71801;HTU21D;59647;55.838;37.292;2023-08-21T04:00:30;15.47;95.72
71801;HTU21D;59647;55.838;37.292;2023-08-21T04:02:57;15.55;95.17
71801;HTU21D;59647;55.838;37.292;2023-08-21T04:05:23;15.61;95.10
71801;HTU21D;59647;55.838;37.292;2023-08-21T04:07:49;15.66;95.24
71801;HTU21D;59647;55.838;37.292;2023-08-21T04:10:15;15.75;94.94
71801;HTU21D;59647;55.838;37.292;2023-08-21T04:12:42;15.82;94.38
71801;HTU21D;59647;55.838;37.292;2023-08-21T04:15:08;15.91;94.08
71801;HTU21D;59647;55.838;37.292;2023-08-21T04:17:34;15.96;94.12
71801;HTU21D;59647;55.838;37.292;2023-08-21T04:20:00;16.00;93.61
71801;HTU21D;59647;55.838;37.292;2023-08-21T04:22:29;16.07;93.35
71801;HTU21D;59647;55.838;37.292;2023-08-21T04:24:55;16.11;92.96
71801;HTU21D;59647;55.838;37.292;2023-08-21T04:27:21;16.17;92.82
71801;HTU21D;59647;55.838;37.292;2023-08-21T04:29:46;16.33;92.76
71801;HTU21D;59647;55.838;37.292;2023-08-21T04:32:12;16.43;92.50
71801;HTU21D;59647;55.838;37.292;2023-08-21T04:34:40;16.50;91.78
71801;HTU21D;59647;55.838;37.292;2023-08-21T04:37:06;16.58;91.74
71801;HTU21D;59647;55.838;37.292;2023-08-21T04:39:31;16.63;91.45
71801;HTU21D;59647;55.838;37.292;2023-08-21T04:41:58;16.75;91.49
71801;HTU21D;59647;55.838;37.292;2023-08-21T04:44:23;16.84;90.98
71801;HTU21D;59647;55.838;37.292;2023-08-21T04:46:50;16.91;90.42
71801;HTU21D;59647;55.838;37.292;2023-08-21T04:49:17;17.03;90.38
71801;HTU21D;59647;55.838;37.292;2023-08-21T04:51:43;17.15;89.88
71801;HTU21D;59647;55.838;37.292;2023-08-21T04:54:10;17.21;89.25
71801;HTU21D;59647;55.838;37.292;2023-08-21T04:56:39;17.16;86.49
71801;HTU21D;59647;55.838;37.292;2023-08-21T04:59:05;17.23;87.88
71801;HTU21D;59647;55.838;37.292;2023-08-21T05:01:31;17.41;88.17
71801;HTU21D;59647;55.838;37.292;2023-08-21T05:03:58;17.48;87.67
71801;HTU21D;59647;55.838;37.292;2023-08-21T05:06:24;17.53;85.84
71801;HTU21D;59647;55.838;37.292;2023-08-21T05:08:51;17.69;87.27
71801;HTU21D;59647;55.838;37.292;2023-08-21T05:11:17;17.76;86.07
71801;HTU21D;59647;55.838;37.292;2023-08-21T05:13:43;17.81;85.81
71801;HTU21D;59647;55.838;37.292;2023-08-21T05:16:11;17.83;85.45
71801;HTU21D;59647;55.838;37.292;2023-08-21T05:18:39;17.89;84.45
71801;HTU21D;59647;55.838;37.292;2023-08-21T05:21:05;17.92;84.11
71801;HTU21D;59647;55.838;37.292;2023-08-21T05:23:31;18.05;84.71
71801;HTU21D;59647;55.838;37.292;2023-08-21T05:26:05;18.12;82.58
71801;HTU21D;59647;55.838;37.292;2023-08-21T05:28:31;18.13;82.87
71801;HTU21D;59647;55.838;37.292;2023-08-21T05:30:57;18.11;82.01
71801;HTU21D;59647;55.838;37.292;2023-08-21T05:33:23;18.13;77.75
71801;HTU21D;59647;55.838;37.292;2023-08-21T05:35:50;18.22;81.59
71801;HTU21D;59647;55.838;37.292;2023-08-21T05:38:16;18.21;76.19
71801;HTU21D;59647;55.838;37.292;2023-08-21T05:40:42;18.32;81.24
71801;HTU21D;59647;55.838;37.292;2023-08-21T05:43:09;18.40;81.30
71801;HTU21D;59647;55.838;37.292;2023-08-21T05:45:37;18.55;81.49
71801;HTU21D;59647;55.838;37.292;2023-08-21T05:48:03;18.68;79.49
71801;HTU21D;59647;55.838;37.292;2023-08-21T05:50:29;18.81;75.51
71801;HTU21D;59647;55.838;37.292;2023-08-21T05:52:55;18.93;78.96
71801;HTU21D;59647;55.838;37.292;2023-08-21T05:55:24;19.02;79.71
71801;HTU21D;59647;55.838;37.292;2023-08-21T05:57:50;19.10;76.77
71801;HTU21D;59647;55.838;37.292;2023-08-21T06:00:18;19.20;79.59
71801;HTU21D;59647;55.838;37.292;2023-08-21T06:02:44;19.26;78.04
71801;HTU21D;59647;55.838;37.292;2023-08-21T06:05:20;19.21;76.45
71801;HTU21D;59647;55.838;37.292;2023-08-21T06:07:50;19.28;78.15
71801;HTU21D;59647;55.838;37.292;2023-08-21T06:10:16;19.35;76.44
71801;HTU21D;59647;55.838;37.292;2023-08-21T06:12:42;19.48;78.46
71801;HTU21D;59647;55.838;37.292;2023-08-21T06:15:09;19.69;76.96
71801;HTU21D;59647;55.838;37.292;2023-08-21T06:17:36;19.88;77.32
71801;HTU21D;59647;55.838;37.292;2023-08-21T06:20:03;20.02;76.81
71801;HTU21D;59647;55.838;37.292;2023-08-21T06:22:32;19.98;67.87
71801;HTU21D;59647;55.838;37.292;2023-08-21T06:24:57;20.04;74.92
71801;HTU21D;59647;55.838;37.292;2023-08-21T06:27:23;20.03;74.67
71801;HTU21D;59647;55.838;37.292;2023-08-21T06:29:49;20.03;71.93
71801;HTU21D;59647;55.838;37.292;2023-08-21T06:32:15;20.05;74.31
71801;HTU21D;59647;55.838;37.292;2023-08-21T06:34:43;20.19;74.31
71801;HTU21D;59647;55.838;37.292;2023-08-21T06:37:08;20.24;72.40
71801;HTU21D;59647;55.838;37.292;2023-08-21T06:39:35;19.97;72.70
71801;HTU21D;59647;55.838;37.292;2023-08-21T06:42:01;19.96;73.59
71801;HTU21D;59647;55.838;37.292;2023-08-21T06:44:36;19.89;66.06
71801;HTU21D;59647;55.838;37.292;2023-08-21T06:47:01;20.03;72.63
71801;HTU21D;59647;55.838;37.292;2023-08-21T06:49:27;20.11;72.04
71801;HTU21D;59647;55.838;37.292;2023-08-21T06:51:53;20.19;69.31
71801;HTU21D;59647;55.838;37.292;2023-08-21T06:54:19;20.21;70.55
71801;HTU21D;59647;55.838;37.292;2023-08-21T06:56:45;20.20;63.95
71801;HTU21D;59647;55.838;37.292;2023-08-21T06:59:10;20.11;62.18
71801;HTU21D;59647;55.838;37.292;2023-08-21T07:01:36;20.33;70.11
71801;HTU21D;59647;55.838;37.292;2023-08-21T07:04:02;20.50;66.27
71801;HTU21D;59647;55.838;37.292;2023-08-21T07:06:29;20.59;62.35
71801;HTU21D;59647;55.838;37.292;2023-08-21T07:08:55;20.69;67.72
71801;HTU21D;59647;55.838;37.292;2023-08-21T07:11:21;20.64;63.45
71801;HTU21D;59647;55.838;37.292;2023-08-21T07:13:47;20.58;63.54
71801;HTU21D;59647;55.838;37.292;2023-08-21T07:16:13;20.50;66.33
71801;HTU21D;59647;55.838;37.292;2023-08-21T07:18:38;20.77;66.95
71801;HTU21D;59647;55.838;37.292;2023-08-21T07:21:04;21.02;66.03
71801;HTU21D;59647;55.838;37.292;2023-08-21T07:23:31;21.08;64.69
71801;HTU21D;59647;55.838;37.292;2023-08-21T07:25:58;21.34;66.44
71801;HTU21D;59647;55.838;37.292;2023-08-21T07:28:24;21.49;64.94
71801;HTU21D;59647;55.838;37.292;2023-08-21T07:30:58;21.57;65.12
71801;HTU21D;59647;55.838;37.292;2023-08-21T07:33:25;21.58;65.90
71801;HTU21D;59647;55.838;37.292;2023-08-21T07:36:02;21.53;66.53
71801;HTU21D;59647;55.838;37.292;2023-08-21T07:38:28;21.58;65.94
71801;HTU21D;59647;55.838;37.292;2023-08-21T07:41:06;21.80;62.42
71801;HTU21D;59647;55.838;37.292;2023-08-21T07:43:33;21.88;65.96
71801;HTU21D;59647;55.838;37.292;2023-08-21T07:46:07;21.74;65.37
71801;HTU21D;59647;55.838;37.292;2023-08-21T07:48:33;21.43;65.41
71801;HTU21D;59647;55.838;37.292;2023-08-21T07:50:59;21.15;59.94
71801;HTU21D;59647;55.838;37.292;2023-08-21T07:53:26;21.07;66.43
71801;HTU21D;59647;55.838;37.292;2023-08-21T07:55:52;21.08;67.00
71801;HTU21D;59647;55.838;37.292;2023-08-21T07:58:19;21.35;66.49
71801;HTU21D;59647;55.838;37.292;2023-08-21T08:00:45;21.85;65.23
71801;HTU21D;59647;55.838;37.292;2023-08-21T08:03:12;21.99;65.83
71801;HTU21D;59647;55.838;37.292;2023-08-21T08:05:40;22.14;65.98
71801;HTU21D;59647;55.838;37.292;2023-08-21T08:08:07;22.32;63.51
71801;HTU21D;59647;55.838;37.292;2023-08-21T08:10:33;22.19;60.30
71801;HTU21D;59647;55.838;37.292;2023-08-21T08:12:59;22.09;62.73
71801;HTU21D;59647;55.838;37.292;2023-08-21T08:15:25;22.51;62.23
71801;HTU21D;59647;55.838;37.292;2023-08-21T08:17:54;22.77;64.66
71801;HTU21D;59647;55.838;37.292;2023-08-21T08:20:20;22.76;54.27
71801;HTU21D;59647;55.838;37.292;2023-08-21T08:22:46;22.80;58.45
71801;HTU21D;59647;55.838;37.292;2023-08-21T08:25:12;22.76;55.00
71801;HTU21D;59647;55.838;37.292;2023-08-21T08:27:39;22.94;58.50
71801;HTU21D;59647;55.838;37.292;2023-08-21T08:30:06;23.15;59.96
71801;HTU21D;59647;55.838;37.292;2023-08-21T08:32:32;23.31;61.77
71801;HTU21D;59647;55.838;37.292;2023-08-21T08:34:57;23.43;61.02
71801;HTU21D;59647;55.838;37.292;2023-08-21T08:37:23;23.71;59.79
71801;HTU21D;59647;55.838;37.292;2023-08-21T08:39:49;24.13;61.41
71801;HTU21D;59647;55.838;37.292;2023-08-21T08:42:15;24.05;58.55
71801;HTU21D;59647;55.838;37.292;2023-08-21T08:44:43;23.98;60.25
71801;HTU21D;59647;55.838;37.292;2023-08-21T08:47:10;24.16;56.84
71801;HTU21D;59647;55.838;37.292;2023-08-21T08:49:37;23.86;56.02
71801;HTU21D;59647;55.838;37.292;2023-08-21T08:52:04;23.77;56.29
71801;HTU21D;59647;55.838;37.292;2023-08-21T08:54:31;23.71;59.88
71801;HTU21D;59647;55.838;37.292;2023-08-21T08:56:57;23.68;59.77
71801;HTU21D;59647;55.838;37.292;2023-08-21T08:59:24;23.37;59.41
71801;HTU21D;59647;55.838;37.292;2023-08-21T09:01:50;23.21;58.77
71801;HTU21D;59647;55.838;37.292;2023-08-21T09:04:16;23.03;54.23
71801;HTU21D;59647;55.838;37.292;2023-08-21T09:06:42;22.78;53.10
71801;HTU21D;59647;55.838;37.292;2023-08-21T09:09:08;22.64;57.58
71801;HTU21D;59647;55.838;37.292;2023-08-21T09:11:47;22.82;58.54
71801;HTU21D;59647;55.838;37.292;2023-08-21T09:14:13;22.64;58.91
71801;HTU21D;59647;55.838;37.292;2023-08-21T09:16:58;22.72;57.96
71801;HTU21D;59647;55.838;37.292;2023-08-21T09:19:24;22.84;58.37
71801;HTU21D;59647;55.838;37.292;2023-08-21T09:21:50;22.97;58.07
71801;HTU21D;59647;55.838;37.292;2023-08-21T09:24:16;22.91;57.77
71801;HTU21D;59647;55.838;37.292;2023-08-21T09:26:44;22.78;58.35
71801;HTU21D;59647;55.838;37.292;2023-08-21T09:29:10;22.66;58.22
71801;HTU21D;59647;55.838;37.292;2023-08-21T09:31:36;22.50;56.84
71801;HTU21D;59647;55.838;37.292;2023-08-21T09:34:03;22.56;51.63
71801;HTU21D;59647;55.838;37.292;2023-08-21T09:36:35;22.84;56.12
71801;HTU21D;59647;55.838;37.292;2023-08-21T09:39:02;23.00;52.50
71801;HTU21D;59647;55.838;37.292;2023-08-21T09:41:29;23.16;55.85
71801;HTU21D;59647;55.838;37.292;2023-08-21T09:44:04;23.24;52.69
71801;HTU21D;59647;55.838;37.292;2023-08-21T09:46:30;23.30;52.85
71801;HTU21D;59647;55.838;37.292;2023-08-21T09:48:57;23.28;54.49
71801;HTU21D;59647;55.838;37.292;2023-08-21T09:51:23;23.39;54.82
71801;HTU21D;59647;55.838;37.292;2023-08-21T09:53:49;23.36;53.51
71801;HTU21D;59647;55.838;37.292;2023-08-21T09:56:35;23.71;55.07
71801;HTU21D;59647;55.838;37.292;2023-08-21T09:59:02;23.82;55.14
71801;HTU21D;59647;55.838;37.292;2023-08-21T10:01:28;24.00;50.26
71801;HTU21D;59647;55.838;37.292;2023-08-21T10:03:58;24.42;52.85
71801;HTU21D;59647;55.838;37.292;2023-08-21T10:06:28;24.72;53.75
71801;HTU21D;59647;55.838;37.292;2023-08-21T10:08:56;24.79;51.98
71801;HTU21D;59647;55.838;37.292;2023-08-21T10:11:22;24.74;52.10
71801;HTU21D;59647;55.838;37.292;2023-08-21T10:13:49;24.57;50.68
71801;HTU21D;59647;55.838;37.292;2023-08-21T10:16:19;24.54;53.03
71801;HTU21D;59647;55.838;37.292;2023-08-21T10:18:47;24.20;51.99
71801;HTU21D;59647;55.838;37.292;2023-08-21T10:21:19;24.15;51.08
71801;HTU21D;59647;55.838;37.292;2023-08-21T10:23:50;24.27;50.05
71801;HTU21D;59647;55.838;37.292;2023-08-21T10:26:21;24.24;51.83
71801;HTU21D;59647;55.838;37.292;2023-08-21T10:28:50;24.48;51.71
71801;HTU21D;59647;55.838;37.292;2023-08-21T10:34:01;24.30;48.92
71801;HTU21D;59647;55.838;37.292;2023-08-21T10:39:28;24.18;46.05
71801;HTU21D;59647;55.838;37.292;2023-08-21T10:42:11;24.30;51.73
71801;HTU21D;59647;55.838;37.292;2023-08-21T10:47:23;24.42;47.98
71801;HTU21D;59647;55.838;37.292;2023-08-21T10:49:54;24.92;49.39
71801;HTU21D;59647;55.838;37.292;2023-08-21T10:52:27;25.43;51.08
71801;HTU21D;59647;55.838;37.292;2023-08-21T10:54:54;25.73;48.77
71801;HTU21D;59647;55.838;37.292;2023-08-21T10:57:23;25.46;45.77
71801;HTU21D;59647;55.838;37.292;2023-08-21T11:00:04;25.33;41.57
71801;HTU21D;59647;55.838;37.292;2023-08-21T11:02:32;25.21;47.79
71801;HTU21D;59647;55.838;37.292;2023-08-21T11:04:59;25.10;46.83
71801;HTU21D;59647;55.838;37.292;2023-08-21T11:07:26;24.80;46.48
71801;HTU21D;59647;55.838;37.292;2023-08-21T11:09:53;24.75;45.87
71801;HTU21D;59647;55.838;37.292;2023-08-21T11:12:21;25.03;43.87
71801;HTU21D;59647;55.838;37.292;2023-08-21T11:14:48;25.30;40.10
71801;HTU21D;59647;55.838;37.292;2023-08-21T11:17:14;25.19;40.62
71801;HTU21D;59647;55.838;37.292;2023-08-21T11:19:41;25.14;44.75
71801;HTU21D;59647;55.838;37.292;2023-08-21T11:22:08;25.40;45.68
71801;HTU21D;59647;55.838;37.292;2023-08-21T11:27:09;26.16;41.07
71801;HTU21D;59647;55.838;37.292;2023-08-21T11:29:38;26.27;44.85
71801;HTU21D;59647;55.838;37.292;2023-08-21T11:32:12;26.26;43.70
71801;HTU21D;59647;55.838;37.292;2023-08-21T11:34:38;26.32;44.86
71801;HTU21D;59647;55.838;37.292;2023-08-21T11:37:05;26.25;44.72
71801;HTU21D;59647;55.838;37.292;2023-08-21T11:39:46;26.17;43.77
71801;HTU21D;59647;55.838;37.292;2023-08-21T11:42:13;26.26;45.56
71801;HTU21D;59647;55.838;37.292;2023-08-21T11:47:10;26.60;44.24
71801;HTU21D;59647;55.838;37.292;2023-08-21T11:49:40;26.30;44.40
71801;HTU21D;59647;55.838;37.292;2023-08-21T11:52:12;25.95;40.86
71801;HTU21D;59647;55.838;37.292;2023-08-21T11:54:40;26.03;44.79
71801;HTU21D;59647;55.838;37.292;2023-08-21T11:57:07;26.10;45.19
71801;HTU21D;59647;55.838;37.292;2023-08-21T11:59:34;25.94;45.34
71801;HTU21D;59647;55.838;37.292;2023-08-21T12:02:02;25.78;44.61
71801;HTU21D;59647;55.838;37.292;2023-08-21T12:04:33;25.83;45.22
71801;HTU21D;59647;55.838;37.292;2023-08-21T12:07:00;25.82;44.76
71801;HTU21D;59647;55.838;37.292;2023-08-21T12:09:26;25.88;44.19
71801;HTU21D;59647;55.838;37.292;2023-08-21T12:11:52;26.33;45.69
71801;HTU21D;59647;55.838;37.292;2023-08-21T12:14:18;26.77;44.75
71801;HTU21D;59647;55.838;37.292;2023-08-21T12:16:44;27.08;43.59
71801;HTU21D;59647;55.838;37.292;2023-08-21T12:19:10;27.24;42.09
71801;HTU21D;59647;55.838;37.292;2023-08-21T12:21:37;27.52;43.48
71801;HTU21D;59647;55.838;37.292;2023-08-21T12:24:04;27.82;43.52
71801;HTU21D;59647;55.838;37.292;2023-08-21T12:26:33;28.03;43.57
71801;HTU21D;59647;55.838;37.292;2023-08-21T12:29:00;27.38;37.26
71801;HTU21D;59647;55.838;37.292;2023-08-21T12:31:26;26.95;41.67
71801;HTU21D;59647;55.838;37.292;2023-08-21T12:33:52;26.53;38.29
71801;HTU21D;59647;55.838;37.292;2023-08-21T12:36:18;26.03;42.07
71801;HTU21D;59647;55.838;37.292;2023-08-21T12:38:44;25.54;40.19
71801;HTU21D;59647;55.838;37.292;2023-08-21T12:41:10;25.22;43.28
71801;HTU21D;59647;55.838;37.292;2023-08-21T12:43:36;24.88;40.22
71801;HTU21D;59647;55.838;37.292;2023-08-21T12:46:01;24.57;44.02
71801;HTU21D;59647;55.838;37.292;2023-08-21T12:48:27;24.40;44.31
71801;HTU21D;59647;55.838;37.292;2023-08-21T12:50:53;24.34;44.46
71801;HTU21D;59647;55.838;37.292;2023-08-21T12:53:19;24.27;44.76
71801;HTU21D;59647;55.838;37.292;2023-08-21T12:55:45;24.57;44.38
71801;HTU21D;59647;55.838;37.292;2023-08-21T12:58:11;25.04;44.32
71801;HTU21D;59647;55.838;37.292;2023-08-21T13:00:39;25.44;43.65
71801;HTU21D;59647;55.838;37.292;2023-08-21T13:03:05;25.77;43.06
71801;HTU21D;59647;55.838;37.292;2023-08-21T13:05:31;26.20;42.10
71801;HTU21D;59647;55.838;37.292;2023-08-21T13:07:57;26.66;42.81
71801;HTU21D;59647;55.838;37.292;2023-08-21T13:10:23;26.98;40.71
71801;HTU21D;59647;55.838;37.292;2023-08-21T13:12:49;27.31;42.03
71801;HTU21D;59647;55.838;37.292;2023-08-21T13:15:17;27.15;40.23
71801;HTU21D;59647;55.838;37.292;2023-08-21T13:17:44;26.85;41.10
71801;HTU21D;59647;55.838;37.292;2023-08-21T13:20:10;26.65;41.42
71801;HTU21D;59647;55.838;37.292;2023-08-21T13:22:51;26.51;38.37
71801;HTU21D;59647;55.838;37.292;2023-08-21T13:25:23;26.47;40.62
71801;HTU21D;59647;55.838;37.292;2023-08-21T13:27:51;26.67;41.62
71801;HTU21D;59647;55.838;37.292;2023-08-21T13:30:17;26.98;41.36
71801;HTU21D;59647;55.838;37.292;2023-08-21T13:32:43;27.30;41.11
71801;HTU21D;59647;55.838;37.292;2023-08-21T13:35:10;27.59;40.01
71801;HTU21D;59647;55.838;37.292;2023-08-21T13:37:36;27.88;38.46
71801;HTU21D;59647;55.838;37.292;2023-08-21T13:40:04;27.76;40.59
71801;HTU21D;59647;55.838;37.292;2023-08-21T13:42:39;27.27;38.27
71801;HTU21D;59647;55.838;37.292;2023-08-21T13:45:11;26.94;37.67
71801;HTU21D;59647;55.838;37.292;2023-08-21T13:47:46;26.73;37.74
71801;HTU21D;59647;55.838;37.292;2023-08-21T13:50:16;26.80;39.94
71801;HTU21D;59647;55.838;37.292;2023-08-21T13:52:43;26.86;40.55
71801;HTU21D;59647;55.838;37.292;2023-08-21T13:55:10;26.90;37.66
71801;HTU21D;59647;55.838;37.292;2023-08-21T13:57:37;26.96;39.04
71801;HTU21D;59647;55.838;37.292;2023-08-21T14:00:04;26.92;39.67
71801;HTU21D;59647;55.838;37.292;2023-08-21T14:02:38;26.80;36.02
71801;HTU21D;59647;55.838;37.292;2023-08-21T14:05:04;26.64;40.30
71801;HTU21D;59647;55.838;37.292;2023-08-21T14:07:31;26.25;40.02
71801;HTU21D;59647;55.838;37.292;2023-08-21T14:09:57;25.95;41.01
71801;HTU21D;59647;55.838;37.292;2023-08-21T14:12:23;25.62;40.94
71801;HTU21D;59647;55.838;37.292;2023-08-21T14:14:49;25.47;41.04
71801;HTU21D;59647;55.838;37.292;2023-08-21T14:17:15;25.39;41.01
71801;HTU21D;59647;55.838;37.292;2023-08-21T14:19:41;25.19;42.07
71801;HTU21D;59647;55.838;37.292;2023-08-21T14:22:07;24.97;42.13
71801;HTU21D;59647;55.838;37.292;2023-08-21T14:24:33;24.85;41.90
71801;HTU21D;59647;55.838;37.292;2023-08-21T14:27:00;24.72;42.46
71801;HTU21D;59647;55.838;37.292;2023-08-21T14:29:26;24.45;42.94
71801;HTU21D;59647;55.838;37.292;2023-08-21T14:31:52;24.40;43.26
71801;HTU21D;59647;55.838;37.292;2023-08-21T14:34:21;24.33;43.87
71801;HTU21D;59647;55.838;37.292;2023-08-21T14:36:49;24.29;44.62
71801;HTU21D;59647;55.838;37.292;2023-08-21T14:39:15;24.20;45.02
71801;HTU21D;59647;55.838;37.292;2023-08-21T14:41:42;24.27;45.48
71801;HTU21D;59647;55.838;37.292;2023-08-21T14:44:09;24.39;46.04
71801;HTU21D;59647;55.838;37.292;2023-08-21T14:46:36;24.54;45.80
71801;HTU21D;59647;55.838;37.292;2023-08-21T14:49:02;24.72;45.29
71801;HTU21D;59647;55.838;37.292;2023-08-21T14:51:28;24.95;45.52
71801;HTU21D;59647;55.838;37.292;2023-08-21T14:53:54;25.22;45.57
71801;HTU21D;59647;55.838;37.292;2023-08-21T14:56:20;25.40;45.37
71801;HTU21D;59647;55.838;37.292;2023-08-21T14:58:47;25.47;45.08
71801;HTU21D;59647;55.838;37.292;2023-08-21T15:01:13;25.51;44.95
71801;HTU21D;59647;55.838;37.292;2023-08-21T15:03:39;25.60;44.90
71801;HTU21D;59647;55.838;37.292;2023-08-21T15:06:05;25.69;45.21
71801;HTU21D;59647;55.838;37.292;2023-08-21T15:08:31;25.80;45.83
71801;HTU21D;59647;55.838;37.292;2023-08-21T15:10:58;25.90;45.05
71801;HTU21D;59647;55.838;37.292;2023-08-21T15:13:23;25.89;44.86
71801;HTU21D;59647;55.838;37.292;2023-08-21T15:15:49;25.80;44.44
71801;HTU21D;59647;55.838;37.292;2023-08-21T15:18:15;25.67;44.19